Time;durP1;ratioP1;P1;durP2;ratioP2;P2;SDS_P1;SDS_P2;PMS_P1;PMS_P2;Temp;Humidity;BMP_temperature;BMP_pressure;BME280_temperature;BME280_humidity;BME280_pressure;Samples;Min_cycle;Max_cycle;Signal;HPM_P1;HPM_P2
2023/12/04 00:01:55;;;;;;;12.93;7.82;;;-0.50;99.90;;;;;;5022805;28;20028;-86
2023/12/04 00:04:20;;;;;;;18.10;9.23;;;-0.50;99.90;;;;;;4999532;28;20379;-87
2023/12/04 00:06:46;;;;;;;20.60;8.48;;;-0.50;99.90;;;;;;4996686;28;20030;-88
2023/12/04 00:09:12;;;;;;;17.25;7.90;;;-0.40;99.90;;;;;;5013766;28;20552;-87
2023/12/04 00:11:37;;;;;;;16.65;8.68;;;-0.40;99.90;;;;;;5016777;28;20033;-85
2023/12/04 00:14:03;;;;;;;19.08;8.50;;;-0.30;99.90;;;;;;5006098;28;20034;-85
2023/12/04 00:16:28;;;;;;;15.90;8.93;;;-0.40;99.90;;;;;;5023347;28;20061;-85
2023/12/04 00:18:54;;;;;;;18.10;9.23;;;-0.40;99.90;;;;;;5014800;28;20260;-84
2023/12/04 00:21:20;;;;;;;12.20;7.47;;;-0.40;99.90;;;;;;5021095;28;20489;-84
2023/12/04 00:23:45;;;;;;;17.05;8.75;;;-0.40;99.90;;;;;;5021941;28;20048;-86
2023/12/04 00:26:12;;;;;;;18.23;9.48;;;-0.40;99.90;;;;;;5018062;28;20021;-85
2023/12/04 00:28:39;;;;;;;19.88;10.70;;;-0.30;99.90;;;;;;5021033;28;20112;-83
2023/12/04 00:31:05;;;;;;;19.90;10.70;;;-0.40;99.90;;;;;;5022621;28;20025;-85
2023/12/04 00:33:30;;;;;;;16.85;10.23;;;-0.40;99.90;;;;;;5022568;28;20068;-86
2023/12/04 00:35:57;;;;;;;18.30;9.98;;;-0.40;99.90;;;;;;5012959;28;20034;-84
2023/12/04 00:38:22;;;;;;;19.65;10.52;;;-0.40;99.90;;;;;;5019947;28;20582;-86
2023/12/04 00:40:48;;;;;;;19.13;11.52;;;-0.50;99.90;;;;;;5004654;28;20133;-84
2023/12/04 00:43:13;;;;;;;23.73;12.70;;;-0.50;99.90;;;;;;5006424;28;20483;-85
2023/12/04 00:45:40;;;;;;;20.60;11.75;;;-0.50;99.90;;;;;;5009300;28;20029;-85
2023/12/04 00:48:06;;;;;;;23.17;11.43;;;-0.60;99.90;;;;;;5000624;28;20795;-83
2023/12/04 00:50:31;;;;;;;21.25;11.60;;;-0.60;99.90;;;;;;4998333;28;20109;-85
2023/12/04 00:52:57;;;;;;;19.48;10.43;;;-0.60;99.90;;;;;;4995102;28;20479;-85
2023/12/04 00:55:23;;;;;;;21.85;11.77;;;-0.60;99.90;;;;;;4999282;28;20040;-84
2023/12/04 00:57:48;;;;;;;21.65;12.20;;;-0.60;99.90;;;;;;5001286;28;20475;-84
2023/12/04 01:00:14;;;;;;;22.13;13.05;;;-0.70;99.90;;;;;;5011786;28;20025;-84
2023/12/04 01:02:40;;;;;;;19.90;11.07;;;-0.70;99.90;;;;;;4986701;28;20029;-84
2023/12/04 01:05:06;;;;;;;21.45;11.65;;;-0.70;99.90;;;;;;4997461;28;20030;-83
2023/12/04 01:07:31;;;;;;;22.58;12.68;;;-0.70;99.90;;;;;;5011261;28;20367;-84
2023/12/04 01:09:57;;;;;;;21.60;12.68;;;-0.70;99.90;;;;;;5002136;28;20022;-83
2023/12/04 01:12:23;;;;;;;22.80;12.23;;;-0.70;99.90;;;;;;4996423;28;20034;-83
2023/12/04 01:14:49;;;;;;;29.70;12.65;;;-0.70;99.90;;;;;;5000840;28;20382;-83
2023/12/04 01:17:14;;;;;;;21.85;11.77;;;-0.70;99.90;;;;;;5004812;28;20066;-83
2023/12/04 01:19:40;;;;;;;19.20;10.48;;;-0.70;99.90;;;;;;5001836;28;20073;-83
2023/12/04 01:22:05;;;;;;;23.52;12.40;;;-0.70;99.90;;;;;;5001240;28;20259;-82
2023/12/04 01:24:32;;;;;;;20.08;12.52;;;-0.70;99.90;;;;;;4997188;28;20077;-83
2023/12/04 01:26:58;;;;;;;23.30;12.25;;;-0.70;99.90;;;;;;5009007;28;20061;-83
2023/12/04 01:29:26;;;;;;;19.77;11.88;;;-0.60;99.90;;;;;;5004013;28;20065;-83
2023/12/04 01:31:52;;;;;;;23.45;12.85;;;-0.60;99.90;;;;;;5004184;28;20037;-85
2023/12/04 01:34:18;;;;;;;20.50;11.43;;;-0.60;99.90;;;;;;5008558;28;20029;-82
2023/12/04 01:36:43;;;;;;;18.83;9.95;;;-0.60;99.90;;;;;;5019364;28;20567;-83
2023/12/04 01:39:09;;;;;;;22.55;12.35;;;-0.60;99.90;;;;;;5016753;28;20049;-83
2023/12/04 01:41:35;;;;;;;19.17;11.48;;;-0.50;99.90;;;;;;5023068;28;20101;-83
2023/12/04 01:44:00;;;;;;;20.77;11.10;;;-0.50;99.90;;;;;;5022908;28;21276;-82
2023/12/04 01:46:26;;;;;;;20.67;11.32;;;-0.40;99.90;;;;;;5023173;28;20032;-83
2023/12/04 01:48:52;;;;;;;19.55;10.95;;;-0.40;99.90;;;;;;5024926;28;20033;-83
2023/12/04 01:51:20;;;;;;;18.40;9.80;;;-0.40;99.90;;;;;;5021149;28;20384;-83
2023/12/04 01:53:47;;;;;;;20.55;11.43;;;-0.40;99.90;;;;;;5020158;28;20025;-85
2023/12/04 01:56:14;;;;;;;16.83;9.90;;;-0.40;99.90;;;;;;5021948;28;20037;-85
2023/12/04 01:58:40;;;;;;;16.75;9.57;;;-0.40;99.90;;;;;;5013817;28;20029;-86
2023/12/04 02:01:06;;;;;;;18.98;10.27;;;-0.30;99.90;;;;;;5006670;28;20502;-84
2023/12/04 02:03:33;;;;;;;16.35;10.13;;;-0.40;99.90;;;;;;5017178;28;20115;-84
2023/12/04 02:06:03;;;;;;;19.48;10.65;;;-0.40;99.90;;;;;;5018160;28;20446;-84
2023/12/04 02:08:30;;;;;;;16.95;9.82;;;-0.40;99.90;;;;;;5022217;28;20021;-84
2023/12/04 02:10:55;;;;;;;20.60;10.75;;;-0.40;99.90;;;;;;5016835;28;20390;-84
2023/12/04 02:13:21;;;;;;;17.15;9.88;;;-0.30;99.90;;;;;;5023249;28;20032;-84
2023/12/04 02:15:51;;;;;;;20.88;9.70;;;-0.30;99.90;;;;;;5024902;28;20033;-84
2023/12/04 02:18:18;;;;;;;17.42;10.57;;;-0.40;99.90;;;;;;4997817;28;20026;-84
2023/12/04 02:20:44;;;;;;;17.83;9.30;;;-0.40;99.90;;;;;;5021034;28;20828;-83
2023/12/04 02:23:09;;;;;;;17.60;10.68;;;-0.40;99.90;;;;;;5022573;28;20116;-83
2023/12/04 02:25:35;;;;;;;17.58;10.50;;;-0.40;99.90;;;;;;5019859;28;20024;-83
2023/12/04 02:28:11;;;;;;;20.75;11.48;;;-0.40;99.90;;;;;;5018932;28;20045;-84
2023/12/04 02:30:38;;;;;;;21.70;10.63;;;-0.40;99.90;;;;;;5015940;28;20363;-85
2023/12/04 02:33:05;;;;;;;21.23;11.30;;;-0.40;99.90;;;;;;5022665;28;20057;-84
2023/12/04 02:35:34;;;;;;;21.08;11.18;;;-0.50;99.90;;;;;;5021450;28;20046;-83
2023/12/04 02:38:03;;;;;;;22.35;12.02;;;-0.50;99.90;;;;;;5023332;28;20030;-84
2023/12/04 02:40:29;;;;;;;23.25;12.75;;;-0.50;99.90;;;;;;5026078;28;20037;-86
2023/12/04 02:42:55;;;;;;;20.10;10.85;;;-0.60;99.90;;;;;;5020485;28;20025;-86
2023/12/04 02:45:21;;;;;;;20.15;11.30;;;-0.60;99.90;;;;;;5020817;28;20030;-85
2023/12/04 02:47:46;;;;;;;22.35;11.00;;;-0.60;99.90;;;;;;5013281;28;20116;-88
2023/12/04 02:50:12;;;;;;;22.70;11.90;;;-0.50;99.90;;;;;;4997322;28;20037;-82
2023/12/04 02:52:37;;;;;;;20.65;10.90;;;-0.50;99.90;;;;;;5018070;28;20161;-83
2023/12/04 02:55:04;;;;;;;17.83;10.35;;;-0.60;99.90;;;;;;5021136;28;20029;-84
2023/12/04 02:57:29;;;;;;;21.02;9.98;;;-0.60;99.90;;;;;;5012382;28;20037;-86
2023/12/04 02:59:55;;;;;;;18.10;9.63;;;-0.50;99.90;;;;;;5020103;28;20394;-85
2023/12/04 03:02:20;;;;;;;18.52;9.52;;;-0.50;99.90;;;;;;5021908;28;20032;-85
2023/12/04 03:04:46;;;;;;;19.45;9.23;;;-0.50;99.90;;;;;;5023921;28;20072;-84
2023/12/04 03:07:12;;;;;;;19.38;9.38;;;-0.50;99.90;;;;;;5004514;28;20026;-86
2023/12/04 03:09:37;;;;;;;17.27;8.90;;;-0.50;99.90;;;;;;5023350;28;20410;-85
2023/12/04 03:12:03;;;;;;;16.92;9.40;;;-0.50;99.90;;;;;;5024843;28;20026;-82
2023/12/04 03:14:29;;;;;;;17.52;9.05;;;-0.40;99.90;;;;;;5022225;28;20022;-85
2023/12/04 03:16:54;;;;;;;14.20;8.68;;;-0.50;99.90;;;;;;4999236;28;20041;-86
2023/12/04 03:19:20;;;;;;;16.90;9.43;;;-0.50;99.90;;;;;;5023824;28;20391;-83
2023/12/04 03:21:46;;;;;;;21.65;9.43;;;-0.50;99.90;;;;;;5021121;28;20029;-87
2023/12/04 03:24:11;;;;;;;17.85;9.90;;;-0.50;99.90;;;;;;5017808;28;20032;-84
2023/12/04 03:26:38;;;;;;;17.77;9.88;;;-0.50;99.90;;;;;;5004576;28;20521;-85
2023/12/04 03:29:04;;;;;;;16.27;9.35;;;-0.50;99.90;;;;;;5023442;28;20021;-85
2023/12/04 03:31:31;;;;;;;17.48;10.05;;;-0.50;99.90;;;;;;5023384;28;20021;-85
2023/12/04 03:33:56;;;;;;;20.48;11.30;;;-0.50;99.90;;;;;;5018097;28;20686;-84
2023/12/04 03:36:22;;;;;;;23.27;10.98;;;-0.50;99.90;;;;;;5020886;28;20182;-83
2023/12/04 03:38:48;;;;;;;17.83;10.20;;;-0.60;99.90;;;;;;5020985;28;20021;-84
2023/12/04 03:41:16;;;;;;;20.02;11.23;;;-0.50;99.90;;;;;;5020716;28;20108;-84
2023/12/04 03:43:42;;;;;;;20.95;11.50;;;-0.60;99.90;;;;;;5021349;28;20028;-83
2023/12/04 03:46:08;;;;;;;21.60;11.18;;;-0.60;99.90;;;;;;5024107;28;20413;-83
2023/12/04 03:48:34;;;;;;;23.75;10.90;;;-0.60;99.90;;;;;;5020554;28;23378;-83
2023/12/04 03:51:00;;;;;;;20.95;12.15;;;-0.70;99.90;;;;;;5011234;28;20060;-84
2023/12/04 03:53:26;;;;;;;23.73;11.85;;;-0.70;99.90;;;;;;5019644;28;20021;-85
2023/12/04 03:55:52;;;;;;;19.83;11.07;;;-0.70;99.90;;;;;;5022282;28;21029;-83
2023/12/04 03:58:18;;;;;;;20.52;11.23;;;-0.70;99.90;;;;;;5021795;28;20104;-83
2023/12/04 04:00:43;;;;;;;22.27;11.65;;;-0.70;99.90;;;;;;5012116;28;20075;-82
2023/12/04 04:03:10;;;;;;;22.98;12.10;;;-0.70;99.90;;;;;;5016115;28;20029;-83
2023/12/04 04:05:35;;;;;;;22.60;11.43;;;-0.70;99.90;;;;;;5014357;28;20029;-85
2023/12/04 04:08:03;;;;;;;20.73;11.57;;;-0.70;99.90;;;;;;5022247;28;20037;-86
2023/12/04 04:10:28;;;;;;;19.02;11.40;;;-0.80;99.90;;;;;;5020331;28;20036;-84
2023/12/04 04:12:54;;;;;;;19.50;10.77;;;-0.70;99.90;;;;;;5018439;28;21220;-83
2023/12/04 04:15:20;;;;;;;25.15;13.07;;;-0.80;99.90;;;;;;5017997;28;20037;-83
2023/12/04 04:17:45;;;;;;;20.80;11.45;;;-0.70;99.90;;;;;;5015261;28;20104;-84
2023/12/04 04:20:12;;;;;;;17.73;10.45;;;-0.70;99.90;;;;;;5021505;28;20029;-85
2023/12/04 04:22:40;;;;;;;20.73;10.52;;;-0.80;99.90;;;;;;5019846;28;20435;-82
2023/12/04 04:25:06;;;;;;;20.25;12.15;;;-0.80;99.90;;;;;;5017161;28;20406;-84
2023/12/04 04:27:32;;;;;;;22.70;12.10;;;-0.80;99.90;;;;;;5019695;28;20021;-83
2023/12/04 04:29:58;;;;;;;21.58;11.63;;;-0.80;99.90;;;;;;5016669;28;20395;-87
2023/12/04 04:32:24;;;;;;;25.33;12.40;;;-0.80;99.90;;;;;;5021406;28;20041;-87
2023/12/04 04:34:49;;;;;;;16.95;10.43;;;-0.80;99.90;;;;;;5019066;28;20017;-85
2023/12/04 04:37:15;;;;;;;18.25;10.95;;;-0.80;99.90;;;;;;5012011;28;20038;-85
2023/12/04 04:39:41;;;;;;;21.60;11.48;;;-0.80;99.90;;;;;;5016983;28;20049;-86
2023/12/04 04:42:06;;;;;;;20.77;10.93;;;-0.80;99.90;;;;;;5015038;28;20029;-85
2023/12/04 04:44:32;;;;;;;16.75;10.15;;;-0.90;99.90;;;;;;5015896;28;20026;-84
2023/12/04 04:46:57;;;;;;;21.45;11.77;;;-0.80;99.90;;;;;;5021455;28;20113;-84
2023/12/04 04:49:23;;;;;;;21.33;10.80;;;-0.80;99.90;;;;;;5019904;28;20361;-85
2023/12/04 04:51:49;;;;;;;17.42;10.25;;;-0.80;99.90;;;;;;5017760;28;20113;-87
2023/12/04 04:54:14;;;;;;;20.55;11.75;;;-0.80;99.90;;;;;;5023054;28;20386;-84
2023/12/04 04:56:40;;;;;;;20.20;10.38;;;-0.80;99.90;;;;;;5021150;28;20060;-85
2023/12/04 04:59:05;;;;;;;20.13;11.43;;;-0.80;99.90;;;;;;5018693;28;20162;-84
2023/12/04 05:01:31;;;;;;;20.52;12.32;;;-0.80;99.90;;;;;;5024608;28;20029;-84
2023/12/04 05:03:59;;;;;;;20.33;11.93;;;-0.80;99.90;;;;;;5021614;28;20924;-84
2023/12/04 05:06:25;;;;;;;18.02;10.48;;;-0.80;99.90;;;;;;5020626;28;20099;-84
2023/12/04 05:08:52;;;;;;;18.60;10.32;;;-0.80;99.90;;;;;;5020565;28;20426;-84
2023/12/04 05:11:18;;;;;;;24.23;12.32;;;-0.80;99.90;;;;;;5023581;28;20041;-82
2023/12/04 05:13:48;;;;;;;19.05;9.57;;;-0.80;99.90;;;;;;5025124;28;20021;-83
2023/12/04 05:16:13;;;;;;;15.85;9.27;;;-0.80;99.90;;;;;;5023986;28;20038;-82
2023/12/04 05:18:39;;;;;;;17.48;9.50;;;-0.80;99.90;;;;;;5021819;28;20117;-84
2023/12/04 05:21:11;;;;;;;19.55;10.02;;;-0.70;99.90;;;;;;5024620;28;20029;-81
2023/12/04 05:23:38;;;;;;;20.60;10.27;;;-0.70;99.90;;;;;;5025171;28;20100;-84
2023/12/04 05:26:05;;;;;;;16.88;9.68;;;-0.70;99.90;;;;;;5003670;28;20025;-82
2023/12/04 05:28:30;;;;;;;16.85;9.75;;;-0.70;99.90;;;;;;5020235;28;20017;-84
2023/12/04 05:30:56;;;;;;;16.13;8.93;;;-0.70;99.90;;;;;;5018631;28;20081;-83
2023/12/04 05:33:21;;;;;;;17.40;9.02;;;-0.60;99.90;;;;;;5024311;28;20021;-83
2023/12/04 05:35:53;;;;;;;18.40;8.77;;;-0.60;99.90;;;;;;5019892;28;20410;-84
2023/12/04 05:38:18;;;;;;;12.23;8.45;;;-0.70;99.90;;;;;;5018918;28;20135;-84
2023/12/04 05:40:46;;;;;;;12.65;7.45;;;-0.60;99.90;;;;;;5002301;28;20487;-83
2023/12/04 05:43:13;;;;;;;16.63;9.32;;;-0.60;99.90;;;;;;5001547;28;20029;-82
2023/12/04 05:45:39;;;;;;;14.60;8.55;;;-0.50;99.90;;;;;;4999147;28;20116;-83
2023/12/04 05:48:05;;;;;;;14.13;8.50;;;-0.50;99.90;;;;;;5005394;28;20033;-91
2023/12/04 05:50:31;;;;;;;11.80;8.13;;;-0.50;99.90;;;;;;5005402;28;20033;-84
2023/12/04 05:52:56;;;;;;;12.18;7.70;;;-0.50;99.90;;;;;;5004893;28;20046;-83
2023/12/04 05:55:22;;;;;;;12.70;8.85;;;-0.60;99.90;;;;;;5000248;28;20227;-85
2023/12/04 05:57:47;;;;;;;11.90;7.43;;;-0.40;99.90;;;;;;4998137;28;20022;-86
2023/12/04 06:00:13;;;;;;;11.63;7.40;;;-0.40;99.90;;;;;;4994526;28;20479;-85
2023/12/04 06:02:43;;;;;;;11.63;7.50;;;-0.40;99.90;;;;;;5003274;28;20034;-84
2023/12/04 06:05:09;;;;;;;14.45;8.52;;;-0.30;99.90;;;;;;5003532;28;20030;-86
2023/12/04 06:07:38;;;;;;;16.88;8.70;;;-0.30;99.90;;;;;;5006225;28;20479;-82
2023/12/04 06:10:08;;;;;;;14.35;8.27;;;-0.30;99.90;;;;;;5002368;28;20039;-84
2023/12/04 06:12:39;;;;;;;14.80;8.68;;;-0.30;99.90;;;;;;4998747;28;20518;-85
2023/12/04 06:15:05;;;;;;;15.57;9.32;;;-0.40;99.90;;;;;;4997752;28;20031;-83
2023/12/04 06:17:30;;;;;;;16.85;9.45;;;-0.40;99.90;;;;;;4982343;28;20046;-86
2023/12/04 06:19:56;;;;;;;14.98;8.70;;;-0.40;99.90;;;;;;5004922;28;20060;-86
2023/12/04 06:22:22;;;;;;;19.30;10.82;;;-0.50;99.90;;;;;;5005957;28;20034;-85
2023/12/04 06:24:48;;;;;;;18.05;9.82;;;-0.50;99.90;;;;;;5003368;28;20544;-90
2023/12/04 06:27:16;;;;;;;19.48;9.52;;;-0.50;99.90;;;;;;5006621;28;20076;-84
2023/12/04 06:29:47;;;;;;;16.15;8.73;;;-0.60;99.90;;;;;;5010910;28;20029;-83
2023/12/04 06:32:14;;;;;;;16.80;8.57;;;-0.60;99.90;;;;;;4999410;28;20034;-84
2023/12/04 06:34:40;;;;;;;15.57;9.32;;;-0.60;99.90;;;;;;4997382;28;20022;-83
2023/12/04 06:37:13;;;;;;;13.40;8.68;;;-0.60;99.90;;;;;;4993674;28;20123;-86
2023/12/04 06:39:40;;;;;;;17.13;9.05;;;-0.60;99.90;;;;;;5011435;28;20061;-87
2023/12/04 06:42:06;;;;;;;15.75;8.88;;;-0.50;99.90;;;;;;4999940;28;20471;-86
2023/12/04 06:44:32;;;;;;;15.88;9.10;;;-0.50;99.90;;;;;;5015645;28;20124;-85
2023/12/04 06:47:01;;;;;;;15.80;9.77;;;-0.60;99.90;;;;;;5019113;28;20030;-84
2023/12/04 06:49:30;;;;;;;14.82;9.15;;;-0.50;99.90;;;;;;5021531;28;20017;-83
2023/12/04 06:51:56;;;;;;;20.00;10.38;;;-0.60;99.90;;;;;;5027409;28;20272;-85
2023/12/04 06:54:21;;;;;;;20.00;10.32;;;-0.60;99.90;;;;;;5021513;28;20072;-86
2023/12/04 06:56:47;;;;;;;20.65;10.73;;;-0.60;99.90;;;;;;5014447;28;20041;-86
2023/12/04 06:59:12;;;;;;;19.08;9.05;;;-0.60;99.90;;;;;;5012765;28;20040;-84
2023/12/04 07:01:38;;;;;;;17.30;10.20;;;-0.70;99.90;;;;;;5024755;28;20446;-84
2023/12/04 07:04:09;;;;;;;16.17;9.75;;;-0.70;99.90;;;;;;5002784;28;20025;-84
2023/12/04 07:06:37;;;;;;;17.35;9.10;;;-0.70;99.90;;;;;;5013848;28;20065;-88
2023/12/04 07:09:03;;;;;;;20.80;11.10;;;-0.60;99.90;;;;;;5021516;28;20032;-85
2023/12/04 07:11:29;;;;;;;16.58;10.02;;;-0.70;99.90;;;;;;5021907;28;20087;-86
2023/12/04 07:13:55;;;;;;;19.00;10.60;;;-0.70;99.90;;;;;;5009456;28;20029;-85
2023/12/04 07:16:20;;;;;;;19.33;10.30;;;-0.70;99.90;;;;;;5021966;28;20390;-84
2023/12/04 07:18:46;;;;;;;19.67;10.23;;;-0.70;99.90;;;;;;5022934;28;20033;-84
2023/12/04 07:21:12;;;;;;;18.58;10.15;;;-0.70;99.90;;;;;;5003733;28;20041;-82
2023/12/04 07:23:37;;;;;;;17.52;10.25;;;-0.70;99.90;;;;;;5022663;28;20026;-84
2023/12/04 07:26:04;;;;;;;15.48;9.07;;;-0.70;99.90;;;;;;5021587;28;20072;-86
2023/12/04 07:28:29;;;;;;;15.45;8.63;;;-0.70;99.90;;;;;;5025453;28;20036;-84
2023/12/04 07:30:55;;;;;;;18.30;9.57;;;-0.70;99.90;;;;;;5005781;28;20026;-85
2023/12/04 07:33:21;;;;;;;15.02;8.77;;;-0.70;99.90;;;;;;5023057;28;20037;-84
2023/12/04 07:35:51;;;;;;;16.75;9.32;;;-0.70;99.90;;;;;;5022869;28;20121;-84
2023/12/04 07:38:18;;;;;;;14.85;8.30;;;-0.60;99.90;;;;;;5022660;28;20033;-86
2023/12/04 07:40:45;;;;;;;13.18;7.78;;;-0.60;99.90;;;;;;4981822;28;20073;-85
2023/12/04 07:43:11;;;;;;;16.48;9.20;;;-0.60;99.90;;;;;;4995131;28;20037;-83
2023/12/04 07:45:39;;;;;;;17.23;9.20;;;-0.50;99.90;;;;;;5004720;28;20030;-86
2023/12/04 07:48:05;;;;;;;17.48;9.40;;;-0.50;99.90;;;;;;4960771;28;20026;-84
2023/12/04 07:50:31;;;;;;;16.35;9.85;;;-0.50;99.90;;;;;;4987081;28;20482;-85
2023/12/04 07:52:56;;;;;;;14.90;8.38;;;-0.50;99.90;;;;;;5002830;28;20102;-85
2023/12/04 07:55:22;;;;;;;12.73;8.15;;;-0.50;99.90;;;;;;4981325;28;20081;-83
2023/12/04 07:57:48;;;;;;;12.10;7.35;;;-0.40;99.90;;;;;;4993773;28;20038;-83
2023/12/04 08:00:14;;;;;;;13.85;8.18;;;-0.40;99.90;;;;;;5004925;28;20064;-83
2023/12/04 08:02:40;;;;;;;15.60;8.07;;;-0.40;99.90;;;;;;4997383;28;20289;-83
2023/12/04 08:05:06;;;;;;;12.27;7.45;;;-0.40;99.90;;;;;;4995716;28;20030;-84
2023/12/04 08:07:32;;;;;;;13.40;7.45;;;-0.40;99.90;;;;;;4995649;28;20030;-84
2023/12/04 08:09:57;;;;;;;10.88;7.30;;;-0.30;99.90;;;;;;4999039;28;20079;-82
2023/12/04 08:12:24;;;;;;;11.50;7.10;;;-0.30;99.90;;;;;;4993686;28;20152;-83
2023/12/04 08:14:49;;;;;;;13.35;7.50;;;-0.20;99.90;;;;;;4984552;28;20034;-83
2023/12/04 08:17:15;;;;;;;12.77;6.97;;;-0.20;99.90;;;;;;5002153;28;20041;-82
2023/12/04 08:19:41;;;;;;;13.00;6.65;;;-0.20;99.90;;;;;;5003252;28;20471;-85
2023/12/04 08:22:07;;;;;;;10.07;6.70;;;-0.20;99.90;;;;;;4992868;28;20030;-84
2023/12/04 08:24:33;;;;;;;12.32;7.32;;;-0.10;99.90;;;;;;4994147;28;20510;-83
2023/12/04 08:26:58;;;;;;;9.25;6.35;;;-0.10;99.90;;;;;;5000184;28;20037;-85
2023/12/04 08:29:24;;;;;;;8.75;5.85;;;-0.10;99.90;;;;;;4999734;28;20116;-84
2023/12/04 08:31:50;;;;;;;12.13;7.38;;;0.00;99.90;;;;;;5000568;28;20026;-85
2023/12/04 08:34:16;;;;;;;10.93;6.80;;;0.00;99.90;;;;;;4998623;28;20034;-84
2023/12/04 08:36:41;;;;;;;10.02;6.78;;;0.00;99.90;;;;;;5006371;28;20037;-84
2023/12/04 08:39:10;;;;;;;12.05;7.07;;;0.00;99.90;;;;;;4994197;28;20049;-85
2023/12/04 08:41:35;;;;;;;10.63;7.10;;;0.00;99.90;;;;;;5000283;28;20030;-83
2023/12/04 08:44:01;;;;;;;11.75;7.18;;;0.00;99.90;;;;;;5026670;28;20037;-83
2023/12/04 08:46:30;;;;;;;9.35;6.05;;;0.00;99.90;;;;;;5019946;28;20045;-84
2023/12/04 08:48:55;;;;;;;9.15;6.28;;;0.00;99.90;;;;;;5020610;28;20021;-84
2023/12/04 08:51:21;;;;;;;9.77;6.13;;;0.00;99.90;;;;;;5028146;28;20474;-83
2023/12/04 08:53:47;;;;;;;9.27;6.20;;;0.10;99.90;;;;;;5027983;28;20101;-83
2023/12/04 08:56:12;;;;;;;11.18;6.68;;;0.10;99.90;;;;;;5027744;28;20149;-83
2023/12/04 08:58:38;;;;;;;8.27;5.50;;;0.10;99.90;;;;;;5027234;28;20053;-86
2023/12/04 09:01:04;;;;;;;9.23;6.40;;;0.10;99.90;;;;;;5028329;28;20489;-82
2023/12/04 09:03:31;;;;;;;7.97;5.47;;;0.20;99.90;;;;;;5028089;28;20040;-84
2023/12/04 09:05:57;;;;;;;8.95;5.95;;;0.20;99.90;;;;;;4993482;28;20033;-83
2023/12/04 09:08:27;;;;;;;10.68;6.85;;;0.30;99.90;;;;;;5026307;28;20261;-84
2023/12/04 09:10:56;;;;;;;11.57;7.07;;;0.30;99.90;;;;;;5003483;28;20037;-83
2023/12/04 09:13:23;;;;;;;12.02;6.22;;;0.30;99.90;;;;;;5003130;28;20072;-85
2023/12/04 09:15:48;;;;;;;8.00;5.80;;;0.30;99.90;;;;;;5025475;28;20048;-83
2023/12/04 09:18:15;;;;;;;10.20;6.60;;;0.30;99.90;;;;;;5024679;28;20467;-84
2023/12/04 09:20:41;;;;;;;8.90;6.43;;;0.30;99.90;;;;;;5025406;28;20032;-84
2023/12/04 09:23:06;;;;;;;13.43;6.90;;;0.30;99.90;;;;;;5026088;28;20029;-83
2023/12/04 09:25:32;;;;;;;9.90;6.25;;;0.40;99.90;;;;;;5004440;28;20045;-82
2023/12/04 09:27:58;;;;;;;11.18;6.90;;;0.40;99.90;;;;;;5027276;28;20026;-83
2023/12/04 09:30:23;;;;;;;8.45;5.63;;;0.40;99.90;;;;;;5026798;28;20021;-83
2023/12/04 09:32:49;;;;;;;7.72;5.45;;;0.40;99.90;;;;;;5026235;28;20033;-83
2023/12/04 09:35:15;;;;;;;9.35;6.15;;;0.40;99.90;;;;;;5027239;28;20029;-83
2023/12/04 09:37:40;;;;;;;10.32;6.30;;;0.40;99.90;;;;;;5026785;28;20045;-82
2023/12/04 09:40:08;;;;;;;10.52;5.90;;;0.40;99.90;;;;;;5027068;28;20083;-82
2023/12/04 09:42:40;;;;;;;10.70;6.45;;;0.40;99.90;;;;;;5028565;28;20025;-85
2023/12/04 09:45:08;;;;;;;9.43;5.97;;;0.50;99.90;;;;;;5023786;28;20025;-83
2023/12/04 09:47:34;;;;;;;10.02;6.22;;;0.60;99.90;;;;;;5027671;28;20022;-84
2023/12/04 09:50:00;;;;;;;9.30;5.45;;;0.60;99.90;;;;;;5027117;28;20402;-82
2023/12/04 09:52:27;;;;;;;8.32;5.30;;;0.70;99.90;;;;;;5027154;28;20117;-82
2023/12/04 09:54:53;;;;;;;9.18;6.03;;;0.70;99.90;;;;;;5025315;28;20091;-82
2023/12/04 09:57:19;;;;;;;8.90;6.03;;;0.80;99.90;;;;;;5022873;28;20037;-82
2023/12/04 09:59:45;;;;;;;9.65;6.45;;;0.80;99.90;;;;;;5021241;28;20021;-81
2023/12/04 10:02:12;;;;;;;8.13;5.55;;;0.80;99.90;;;;;;5001993;28;20029;-84
2023/12/04 10:04:37;;;;;;;9.85;6.78;;;0.90;99.90;;;;;;5023336;28;20043;-83
2023/12/04 10:07:04;;;;;;;12.90;6.50;;;0.80;99.90;;;;;;5026709;28;20124;-82
2023/12/04 10:09:30;;;;;;;8.85;5.88;;;0.80;99.90;;;;;;5027067;28;20452;-82
2023/12/04 10:11:57;;;;;;;11.02;6.75;;;0.80;99.90;;;;;;5025603;28;20033;-81
2023/12/04 10:14:23;;;;;;;10.57;6.85;;;0.80;99.90;;;;;;5026086;28;20398;-81
2023/12/04 10:16:55;;;;;;;11.45;6.97;;;0.80;99.90;;;;;;5022472;28;20033;-83
2023/12/04 10:19:23;;;;;;;12.93;7.25;;;0.80;99.90;;;;;;5020855;28;20025;-82
2023/12/04 10:21:50;;;;;;;11.63;6.60;;;0.80;99.90;;;;;;5021408;28;20482;-82
2023/12/04 10:24:35;;;;;;;12.63;6.38;;;0.80;99.90;;;;;;5023827;28;20028;-81
2023/12/04 10:27:11;;;;;;;12.45;7.13;;;0.80;99.90;;;;;;5019705;28;20064;-80
2023/12/04 10:29:47;;;;;;;8.63;5.43;;;0.70;99.90;;;;;;5021210;28;20053;-82
2023/12/04 10:32:14;;;;;;;;;;;0.70;99.90;;;;;;5003379;28;20037;-79
2023/12/04 10:34:44;;;;;;;9.23;5.68;;;0.70;99.90;;;;;;5024342;28;19916;-80
2023/12/04 10:37:11;;;;;;;9.50;6.18;;;0.70;99.90;;;;;;5022335;28;20040;-80
2023/12/04 10:39:48;;;;;;;11.20;6.32;;;0.70;99.90;;;;;;5022854;28;20834;-82
2023/12/04 10:42:27;;;;;;;9.88;6.05;;;0.70;99.90;;;;;;5025358;28;20045;-81
2023/12/04 10:44:55;;;;;;;8.45;5.55;;;0.70;99.90;;;;;;5017747;28;20441;-82
2023/12/04 10:47:22;;;;;;;9.30;6.07;;;0.70;99.90;;;;;;5025059;28;20048;-80
2023/12/04 10:49:51;;;;;;;9.57;4.97;;;0.80;99.90;;;;;;5022100;28;20052;-80
2023/12/04 10:52:21;;;;;;;9.05;5.97;;;0.80;99.90;;;;;;5025286;28;20029;-80
2023/12/04 10:54:50;;;;;;;9.80;5.72;;;0.80;99.90;;;;;;5000121;28;20081;-80
2023/12/04 10:57:39;;;;;;;7.38;5.18;;;0.80;99.90;;;;;;5017271;28;20495;-80
2023/12/04 11:00:08;;;;;;;13.50;8.48;;;0.80;99.90;;;;;;5020854;28;20235;-80
2023/12/04 11:02:40;;;;;;;10.75;5.50;;;0.80;99.90;;;;;;5022497;28;20026;-80
2023/12/04 11:05:14;;;;;;;8.45;5.28;;;0.90;99.90;;;;;;5019432;28;20178;-85
2023/12/04 11:07:59;;;;;;;5.90;4.70;;;0.90;99.90;;;;;;5022679;28;20026;-81
2023/12/04 11:10:26;;;;;;;7.10;5.68;;;1.00;99.90;;;;;;5025132;28;20505;-80
2023/12/04 11:13:16;;;;;;;10.02;7.20;;;1.00;99.90;;;;;;5022992;28;20034;-83
2023/12/04 11:15:45;;;;;;;48.45;30.63;;;1.00;99.90;;;;;;4997921;28;20017;-79
2023/12/04 11:18:14;;;;;;;10.20;6.47;;;1.00;99.90;;;;;;5021384;28;20041;-81
2023/12/04 11:21:04;;;;;;;9.57;5.45;;;0.90;99.90;;;;;;5021804;28;20025;-81
2023/12/04 11:23:34;;;;;;;9.30;5.72;;;1.00;99.90;;;;;;5023767;28;20094;-84
2023/12/04 11:26:00;;;;;;;11.27;6.40;;;1.00;99.90;;;;;;5014560;28;20040;-80
2023/12/04 11:28:27;;;;;;;7.22;5.07;;;1.00;99.90;;;;;;5024932;28;20056;-82
2023/12/04 11:30:57;;;;;;;20.63;16.20;;;1.00;99.90;;;;;;5023822;28;20552;-82
2023/12/04 11:33:22;;;;;;;15.57;11.55;;;1.00;99.90;;;;;;5016504;28;20037;-82
2023/12/04 11:35:50;;;;;;;12.63;7.78;;;1.00;99.90;;;;;;5019917;28;20052;-80
2023/12/04 11:38:17;;;;;;;11.70;7.57;;;1.00;99.90;;;;;;5020059;28;20040;-80
2023/12/04 11:40:46;;;;;;;7.95;5.20;;;1.00;99.90;;;;;;5018703;28;20056;-82
2023/12/04 11:43:23;;;;;;;12.70;6.90;;;1.00;99.90;;;;;;5024301;28;20039;-80
2023/12/04 11:45:49;;;;;;;16.75;12.52;;;1.00;99.90;;;;;;5023116;28;20025;-80
2023/12/04 11:48:15;;;;;;;22.30;13.65;;;1.00;99.90;;;;;;5029055;28;20382;-80
2023/12/04 11:50:44;;;;;;;9.70;6.65;;;1.00;99.90;;;;;;5023679;28;20117;-82
2023/12/04 11:53:13;;;;;;;8.85;5.78;;;1.00;99.90;;;;;;5024729;28;20447;-80
2023/12/04 11:55:41;;;;;;;9.77;6.38;;;1.00;99.90;;;;;;5023042;28;20025;-80
2023/12/04 11:58:16;;;;;;;43.35;22.55;;;0.90;99.90;;;;;;5016309;28;20026;-80
2023/12/04 12:00:42;;;;;;;16.70;9.25;;;1.00;99.90;;;;;;5010049;28;20033;-80
2023/12/04 12:03:09;;;;;;;10.88;6.95;;;1.00;99.90;;;;;;5021406;28;20025;-80
2023/12/04 12:05:38;;;;;;;11.55;6.15;;;1.00;99.90;;;;;;4999077;28;20036;-87
2023/12/04 12:08:06;;;;;;;7.82;5.47;;;0.90;99.90;;;;;;5019362;28;20156;-82
2023/12/04 12:10:33;;;;;;;12.70;5.22;;;0.90;99.90;;;;;;5004800;28;20434;-79
2023/12/04 12:12:59;;;;;;;7.68;5.03;;;0.90;99.90;;;;;;5010489;28;20069;-83
2023/12/04 12:15:25;;;;;;;9.70;5.93;;;0.90;99.90;;;;;;5023467;28;20037;-80
2023/12/04 12:17:51;;;;;;;7.85;5.07;;;0.90;99.90;;;;;;5011782;28;20124;-81
2023/12/04 12:20:17;;;;;;;8.43;5.07;;;0.90;99.90;;;;;;5022175;28;20133;-80
2023/12/04 12:22:43;;;;;;;7.63;4.68;;;1.00;99.90;;;;;;5013783;28;20029;-79
2023/12/04 12:25:10;;;;;;;7.90;5.05;;;0.90;99.90;;;;;;5018164;28;20032;-80
2023/12/04 12:27:39;;;;;;;10.55;5.30;;;0.90;99.90;;;;;;5020148;28;20147;-80
2023/12/04 12:30:06;;;;;;;7.43;5.55;;;0.90;99.90;;;;;;5020874;28;20029;-80
2023/12/04 12:32:32;;;;;;;9.75;6.00;;;0.90;99.90;;;;;;5022074;28;20061;-79
2023/12/04 12:34:58;;;;;;;8.77;5.47;;;0.90;99.90;;;;;;5019174;28;20597;-81
2023/12/04 12:37:24;;;;;;;9.63;5.70;;;0.90;99.90;;;;;;5015708;28;20530;-81